Time;durP1;ratioP1;P1;durP2;ratioP2;P2;SDS_P1;SDS_P2;PMS_P1;PMS_P2;Temp;Humidity;BMP_temperature;BMP_pressure;BME280_temperature;BME280_humidity;BME280_pressure;Samples;Min_cycle;Max_cycle;Signal;HPM_P1;HPM_P2
2020/12/25 00:00:40;;;;;;;3.97;3.57;;;;;;;3.99;91.16;99144.17;1736862;82;25154;-77
2020/12/25 00:03:07;;;;;;;3.87;3.47;;;;;;;3.99;91.19;99141.56;1719843;82;25389;-78
2020/12/25 00:05:35;;;;;;;4.50;3.40;;;;;;;4.03;91.10;99141.78;1735913;82;25224;-78
2020/12/25 00:08:02;;;;;;;3.77;2.90;;;;;;;4.01;90.82;99141.04;1736910;82;25168;-78
2020/12/25 00:10:29;;;;;;;3.20;2.90;;;;;;;4.01;90.76;99143.17;1736809;82;25751;-78
2020/12/25 00:12:55;;;;;;;3.90;2.50;;;;;;;3.95;90.92;99138.31;1736790;82;25137;-78
2020/12/25 00:15:22;;;;;;;3.60;2.80;;;;;;;3.94;91.04;99139.25;1737032;82;25089;-78
2020/12/25 00:17:49;;;;;;;3.37;2.70;;;;;;;3.95;91.05;99144.81;1736912;82;25727;-78
2020/12/25 00:20:15;;;;;;;4.57;3.20;;;;;;;3.97;91.21;99150.79;1736868;82;25133;-78
2020/12/25 00:22:42;;;;;;;3.17;2.70;;;;;;;3.97;91.13;99153.39;1745894;81;25331;-78
2020/12/25 00:25:08;;;;;;;3.80;2.80;;;;;;;4.01;91.15;99151.45;1766958;81;25261;-78
2020/12/25 00:27:35;;;;;;;3.63;2.90;;;;;;;4.03;91.08;99157.39;1766728;81;25231;-78
2020/12/25 00:30:02;;;;;;;4.07;2.60;;;;;;;4.04;91.15;99162.51;1766769;81;25299;-79
2020/12/25 00:32:30;;;;;;;3.77;2.97;;;;;;;4.04;90.97;99167.72;1766845;81;25218;-78
2020/12/25 00:34:57;;;;;;;5.80;3.50;;;;;;;4.07;90.83;99172.75;1766830;81;25555;-78
2020/12/25 00:37:23;;;;;;;3.90;2.77;;;;;;;4.05;90.67;99178.48;1766711;81;25323;-78
2020/12/25 00:39:50;;;;;;;3.73;2.53;;;;;;;4.04;90.72;99177.30;1766738;81;25500;-78
2020/12/25 00:42:17;;;;;;;3.87;2.60;;;;;;;4.02;90.64;99179.13;1766887;81;25157;-79
2020/12/25 00:44:44;;;;;;;2.97;2.47;;;;;;;4.01;90.66;99178.77;1766737;81;25085;-79
2020/12/25 00:47:10;;;;;;;3.97;2.67;;;;;;;4.02;90.64;99185.63;1766782;81;25494;-79
2020/12/25 00:49:37;;;;;;;3.57;2.67;;;;;;;3.98;90.68;99186.28;1766556;81;25303;-79
2020/12/25 00:52:04;;;;;;;3.40;2.70;;;;;;;4.01;90.62;99190.01;1766576;81;25160;-79
2020/12/25 00:54:31;;;;;;;4.13;2.83;;;;;;;3.98;90.71;99196.69;1766687;81;25382;-79
2020/12/25 00:57:00;;;;;;;3.57;3.03;;;;;;;3.98;90.77;99205.80;1765634;81;25061;-78
2020/12/25 00:59:28;;;;;;;4.67;3.17;;;;;;;4.00;90.77;99213.05;1738986;81;25145;-79
2020/12/25 01:01:55;;;;;;;3.77;3.00;;;;;;;3.98;90.95;99213.59;1766689;81;25176;-79
2020/12/25 01:04:22;;;;;;;4.53;3.27;;;;;;;3.94;90.97;99227.72;1766889;81;25690;-79
2020/12/25 01:06:49;;;;;;;3.80;3.03;;;;;;;3.94;91.08;99223.81;1766874;81;25263;-77
2020/12/25 01:09:15;;;;;;;4.20;2.97;;;;;;;3.94;91.09;99226.42;1766817;81;25648;-79
2020/12/25 01:11:42;;;;;;;3.63;2.83;;;;;;;4.00;90.99;99233.86;1766697;81;25136;-79
2020/12/25 01:14:09;;;;;;;4.30;3.73;;;;;;;3.97;91.07;99234.06;1766871;81;25243;-79
2020/12/25 01:16:36;;;;;;;3.80;3.23;;;;;;;3.95;91.14;99231.98;1766711;81;25698;-78
2020/12/25 01:19:02;;;;;;;4.07;3.50;;;;;;;3.96;91.29;99241.95;1766656;81;25294;-78
2020/12/25 01:21:29;;;;;;;5.10;3.20;;;;;;;3.96;91.28;99241.48;1766893;81;25291;-78
2020/12/25 01:23:56;;;;;;;3.67;2.97;;;;;;;3.99;91.47;99240.45;1755411;81;25280;-79
2020/12/25 01:26:22;;;;;;;4.27;2.90;;;;;;;4.01;91.49;99243.36;1749581;82;25202;-79
2020/12/25 01:28:50;;;;;;;3.50;3.20;;;;;;;4.07;91.37;99247.36;1749613;82;25221;-79
2020/12/25 01:31:17;;;;;;;3.50;2.80;;;;;;;4.07;91.31;99246.92;1749600;82;25093;-79
2020/12/25 01:33:45;;;;;;;3.30;2.50;;;;;;;4.04;91.23;99250.99;1749652;82;25066;-79
2020/12/25 01:36:12;;;;;;;2.43;2.20;;;;;;;4.06;91.23;99250.44;1749631;82;25093;-78
2020/12/25 01:38:38;;;;;;;2.90;2.50;;;;;;;4.09;90.66;99254.17;1749506;82;25501;-79
2020/12/25 01:41:05;;;;;;;2.73;2.30;;;;;;;4.08;90.65;99258.98;1749654;82;25379;-78
2020/12/25 01:43:32;;;;;;;2.53;2.03;;;;;;;4.12;90.40;99257.52;1749571;82;25201;-77
2020/12/25 01:45:58;;;;;;;3.30;2.27;;;;;;;4.11;90.42;99257.98;1749539;82;25252;-78
2020/12/25 01:48:25;;;;;;;2.40;1.90;;;;;;;4.13;90.29;99259.20;1749655;82;25236;-78
2020/12/25 01:50:52;;;;;;;3.50;1.90;;;;;;;4.17;89.88;99253.72;1749499;82;25201;-77
2020/12/25 01:53:20;;;;;;;2.37;2.17;;;;;;;4.17;89.59;99251.11;1749479;82;25222;-78
2020/12/25 01:55:47;;;;;;;3.20;2.23;;;;;;;4.19;89.64;99253.19;1749699;82;25125;-79
2020/12/25 01:58:14;;;;;;;3.00;2.30;;;;;;;4.18;89.55;99250.20;1749642;82;25731;-78
2020/12/25 02:00:41;;;;;;;2.87;2.40;;;;;;;4.19;89.43;99253.63;1724975;82;25174;-78
2020/12/25 02:03:07;;;;;;;3.63;2.37;;;;;;;4.17;89.51;99255.48;1749702;82;25173;-78
2020/12/25 02:05:35;;;;;;;3.73;2.63;;;;;;;4.17;89.49;99255.48;1726473;82;25473;-77
2020/12/25 02:08:02;;;;;;;3.07;2.50;;;;;;;4.17;89.61;99261.52;1726357;82;25098;-78
2020/12/25 02:10:29;;;;;;;2.67;2.20;;;;;;;4.18;89.52;99263.22;1749631;82;25283;-78
2020/12/25 02:12:55;;;;;;;3.90;2.53;;;;;;;4.17;89.56;99269.80;1749774;82;25330;-79
2020/12/25 02:15:23;;;;;;;2.87;2.57;;;;;;;4.18;89.62;99274.10;1749580;82;25493;-78
2020/12/25 02:17:49;;;;;;;3.03;2.70;;;;;;;4.14;89.82;99272.58;1701277;82;25090;-78
2020/12/25 02:20:16;;;;;;;4.37;2.47;;;;;;;4.11;89.98;99280.11;1749658;82;25113;-78
2020/12/25 02:22:43;;;;;;;5.67;3.10;;;;;;;4.14;90.02;99279.08;1749683;81;25208;-77
2020/12/25 02:25:09;;;;;;;5.13;2.90;;;;;;;4.15;90.17;99282.08;1737053;82;25239;-78
2020/12/25 02:27:36;;;;;;;4.83;3.43;;;;;;;4.09;90.27;99281.97;1736903;82;25183;-78
2020/12/25 02:30:04;;;;;;;6.37;4.00;;;;;;;4.09;90.50;99282.80;1736951;82;25829;-78
2020/12/25 02:32:32;;;;;;;6.17;4.13;;;;;;;4.04;90.65;99279.62;1736918;82;25208;-78
2020/12/25 02:34:59;;;;;;;5.63;3.87;;;;;;;4.06;90.75;99277.77;1736937;82;25145;-78
2020/12/25 02:37:25;;;;;;;4.33;3.33;;;;;;;4.09;90.90;99284.58;1737017;82;25319;-78
2020/12/25 02:39:53;;;;;;;4.63;3.33;;;;;;;4.08;91.24;99294.59;1736982;82;25216;-78
2020/12/25 02:42:20;;;;;;;4.83;4.00;;;;;;;4.08;91.53;99286.31;1736931;82;25141;-78
2020/12/25 02:44:46;;;;;;;5.27;3.67;;;;;;;4.04;91.48;99294.41;1736919;82;25765;-78
2020/12/25 02:47:13;;;;;;;4.70;4.03;;;;;;;4.04;91.76;99292.63;1737001;82;25224;-78
2020/12/25 02:49:40;;;;;;;4.37;3.60;;;;;;;4.05;91.81;99289.56;1722045;82;25101;-77
2020/12/25 02:52:07;;;;;;;5.40;4.03;;;;;;;4.07;91.93;99288.56;1736799;82;25595;-78
2020/12/25 02:54:33;;;;;;;5.00;3.87;;;;;;;4.05;91.92;99286.48;1737032;82;25153;-78
2020/12/25 02:57:00;;;;;;;5.90;3.87;;;;;;;4.04;92.14;99286.59;1736997;82;25631;-78
2020/12/25 02:59:26;;;;;;;4.77;3.50;;;;;;;4.09;92.49;99294.98;1722112;82;25205;-78
2020/12/25 03:01:53;;;;;;;5.43;3.77;;;;;;;4.07;92.55;99298.97;1737061;82;25094;-77
2020/12/25 03:04:21;;;;;;;5.33;3.80;;;;;;;4.09;92.65;99298.89;1737194;82;25148;-78
2020/12/25 03:06:48;;;;;;;4.10;3.30;;;;;;;4.13;92.89;99298.25;1736937;82;25249;-78
2020/12/25 03:09:14;;;;;;;3.50;2.90;;;;;;;4.09;92.77;99299.72;1737038;82;25153;-78
2020/12/25 03:11:41;;;;;;;3.20;2.80;;;;;;;4.12;92.96;99296.09;1737078;82;25145;-76
2020/12/25 03:14:08;;;;;;;3.30;2.30;;;;;;;4.08;92.89;99303.23;1737058;82;25351;-78
2020/12/25 03:16:34;;;;;;;3.00;2.70;;;;;;;4.08;92.94;99304.53;1736837;82;25581;-78
2020/12/25 03:19:01;;;;;;;3.77;2.73;;;;;;;4.03;93.22;99302.66;1736979;82;25236;-78
2020/12/25 03:21:28;;;;;;;2.87;2.23;;;;;;;4.04;93.00;99311.33;1736870;82;25200;-78
2020/12/25 03:23:54;;;;;;;2.33;2.07;;;;;;;4.03;93.03;99314.36;1746982;81;25546;-78
2020/12/25 03:26:21;;;;;;;3.37;2.20;;;;;;;4.06;93.11;99311.59;1766984;81;25345;-77
2020/12/25 03:28:48;;;;;;;3.03;2.50;;;;;;;3.98;92.91;99313.78;1766894;81;25149;-77
2020/12/25 03:31:14;;;;;;;4.00;2.57;;;;;;;3.97;93.01;99316.03;1766879;81;25476;-77
2020/12/25 03:33:41;;;;;;;3.50;2.63;;;;;;;3.95;93.00;99316.55;1767053;81;25160;-77
2020/12/25 03:36:07;;;;;;;4.60;2.50;;;;;;;3.92;92.99;99314.58;1766914;81;25340;-77
2020/12/25 03:38:34;;;;;;;3.90;3.23;;;;;;;3.94;93.07;99314.03;1766941;81;25648;-78
2020/12/25 03:41:02;;;;;;;4.00;3.10;;;;;;;3.93;93.04;99309.77;1766742;81;25235;-78
2020/12/25 03:43:29;;;;;;;4.03;3.33;;;;;;;3.91;93.04;99311.15;1767007;81;25290;-78
2020/12/25 03:45:56;;;;;;;4.27;3.00;;;;;;;3.92;93.09;99308.91;1766898;81;25264;-78
2020/12/25 03:48:22;;;;;;;3.90;3.23;;;;;;;3.88;93.05;99310.02;1766812;81;25505;-78
2020/12/25 03:50:49;;;;;;;4.47;3.53;;;;;;;3.87;93.19;99305.28;1766836;81;25168;-78
2020/12/25 03:53:16;;;;;;;5.67;3.93;;;;;;;3.88;93.15;99311.31;1766838;81;25263;-78
2020/12/25 03:55:42;;;;;;;5.43;3.50;;;;;;;3.90;93.31;99312.92;1766907;81;25417;-77
2020/12/25 03:58:10;;;;;;;5.40;4.00;;;;;;;3.92;93.33;99314.11;1766941;81;25156;-78
2020/12/25 04:00:37;;;;;;;5.30;4.20;;;;;;;3.87;93.22;99314.39;1766875;81;25963;-78
2020/12/25 04:03:03;;;;;;;3.93;3.13;;;;;;;3.87;93.39;99323.94;1766998;81;25244;-78
2020/12/25 04:05:30;;;;;;;4.73;3.93;;;;;;;3.82;93.31;99329.85;1766791;81;25282;-78
2020/12/25 04:07:57;;;;;;;4.90;3.93;;;;;;;3.80;93.42;99331.70;1766717;81;25714;-78
2020/12/25 04:10:23;;;;;;;5.23;3.80;;;;;;;3.78;93.58;99340.06;1766928;81;25081;-78
2020/12/25 04:12:50;;;;;;;6.00;3.87;;;;;;;3.78;93.50;99340.06;1766889;81;25513;-77
2020/12/25 04:15:16;;;;;;;4.63;3.93;;;;;;;3.81;93.53;99334.70;1766856;81;25152;-78
2020/12/25 04:17:43;;;;;;;5.27;3.90;;;;;;;3.76;93.58;99343.22;1766897;81;25734;-78
2020/12/25 04:20:10;;;;;;;5.40;4.00;;;;;;;3.74;93.47;99341.99;1766881;81;25211;-78
2020/12/25 04:22:36;;;;;;;4.90;3.40;;;;;;;3.75;93.52;99345.42;1766698;81;25571;-77
2020/12/25 04:25:04;;;;;;;6.07;4.10;;;;;;;3.67;93.56;99342.78;1766810;81;25093;-77
2020/12/25 04:27:30;;;;;;;4.33;3.80;;;;;;;3.68;93.57;99343.14;1766740;81;25641;-78
2020/12/25 04:29:57;;;;;;;6.23;3.50;;;;;;;3.66;93.66;99346.30;1766797;81;25299;-77
2020/12/25 04:32:24;;;;;;;4.00;3.60;;;;;;;3.65;93.76;99348.53;1766761;81;25638;-77
2020/12/25 04:34:50;;;;;;;4.80;3.80;;;;;;;3.63;93.82;99345.16;1766977;81;25358;-77
2020/12/25 04:37:18;;;;;;;4.60;3.83;;;;;;;3.64;93.91;99341.64;1766932;81;25244;-78
2020/12/25 04:39:45;;;;;;;4.93;3.73;;;;;;;3.71;94.12;99347.36;1766761;81;25196;-77
2020/12/25 04:42:12;;;;;;;4.63;3.80;;;;;;;3.66;93.98;99345.00;1766617;81;25643;-78
2020/12/25 04:44:38;;;;;;;6.67;4.20;;;;;;;3.65;94.01;99355.04;1766937;81;25196;-78
2020/12/25 04:47:11;;;;;;;4.60;3.47;;;;;;;3.66;94.14;99356.70;1766755;81;25199;-77
2020/12/25 04:49:38;;;;;;;4.73;3.80;;;;;;;3.68;94.21;99354.02;1766749;81;25280;-77
2020/12/25 04:52:05;;;;;;;5.07;3.80;;;;;;;3.72;94.23;99367.26;1766589;81;26388;-77
2020/12/25 04:54:32;;;;;;;3.87;3.33;;;;;;;3.74;94.18;99364.55;1766740;81;25156;-78
2020/12/25 04:56:59;;;;;;;4.13;3.43;;;;;;;3.72;94.24;99364.66;1766794;81;25721;-77
2020/12/25 04:59:30;;;;;;;5.27;3.53;;;;;;;3.73;94.21;99362.88;1766778;81;25196;-76
2020/12/25 05:02:00;;;;;;;4.23;3.73;;;;;;;3.74;94.24;99361.94;1766680;81;25143;-78
2020/12/25 05:04:27;;;;;;;6.00;3.70;;;;;;;3.75;94.25;99364.94;1766692;81;25097;-77
2020/12/25 05:06:54;;;;;;;4.40;3.20;;;;;;;3.80;94.34;99367.66;1766647;81;25236;-77
2020/12/25 05:09:25;;;;;;;4.63;3.73;;;;;;;3.82;94.28;99376.68;1766870;81;25204;-77
2020/12/25 05:11:56;;;;;;;4.97;3.60;;;;;;;3.85;94.32;99380.42;1766713;81;25097;-78
2020/12/25 05:14:29;;;;;;;5.67;3.50;;;;;;;3.83;94.32;99377.91;1766975;81;25599;-77
2020/12/25 05:17:03;;;;;;;4.90;3.90;;;;;;;3.89;94.19;99378.88;1818346;78;26889;-77
2020/12/25 05:19:31;;;;;;;3.60;3.30;;;;;;;3.78;94.08;99382.52;1699820;80;25631;-78
2020/12/25 05:22:00;;;;;;;4.63;3.70;;;;;;;3.76;94.36;99386.14;1789464;80;25239;-77
2020/12/25 05:24:29;;;;;;;3.93;3.53;;;;;;;3.80;94.20;99382.44;1789559;79;25272;-78
2020/12/25 05:26:57;;;;;;;4.23;3.60;;;;;;;3.81;94.07;99385.42;1762612;80;25269;-77
2020/12/25 05:29:25;;;;;;;4.70;3.63;;;;;;;3.80;94.04;99385.03;1757841;80;25241;-78
2020/12/25 05:31:52;;;;;;;4.13;3.73;;;;;;;3.78;94.09;99386.41;1761210;81;25722;-77
2020/12/25 05:34:20;;;;;;;4.20;3.73;;;;;;;3.80;94.07;99389.77;1761299;81;25357;-77
2020/12/25 05:36:54;;;;;;;3.70;3.10;;;;;;;3.79;93.97;99392.02;1788753;80;25318;-77
2020/12/25 05:39:36;;;;;;;3.43;3.13;;;;;;;3.78;94.05;99401.20;1757903;80;25704;-76
2020/12/25 05:42:05;;;;;;;4.23;3.60;;;;;;;3.79;94.03;99398.95;1761197;81;25252;-78
2020/12/25 05:44:46;;;;;;;3.33;2.97;;;;;;;3.80;94.01;99397.58;1761421;81;25204;-76
2020/12/25 05:47:17;;;;;;;3.53;3.00;;;;;;;3.79;93.92;99403.72;1761251;81;25268;-77
2020/12/25 05:49:44;;;;;;;3.57;3.17;;;;;;;3.79;94.00;99402.86;1760904;81;25312;-77
2020/12/25 05:52:14;;;;;;;3.40;3.07;;;;;;;3.86;94.00;99402.93;1726661;81;25343;-77
2020/12/25 05:54:42;;;;;;;3.27;2.97;;;;;;;3.80;93.83;99405.84;1754394;81;25217;-77
2020/12/25 05:57:09;;;;;;;3.30;3.00;;;;;;;3.82;93.93;99413.11;1754282;81;25275;-78
2020/12/25 05:59:35;;;;;;;3.73;2.87;;;;;;;3.85;93.94;99414.25;1754272;81;25389;-77
2020/12/25 06:02:04;;;;;;;4.67;2.90;;;;;;;3.86;93.88;99415.94;1754156;81;25094;-77
2020/12/25 06:04:33;;;;;;;2.80;2.60;;;;;;;3.89;93.77;99422.28;1754327;81;25224;-78
2020/12/25 06:07:00;;;;;;;3.37;3.00;;;;;;;3.87;93.68;99421.06;1754301;81;25357;-77
2020/12/25 06:09:33;;;;;;;4.53;3.07;;;;;;;3.86;93.67;99427.17;1754277;81;25287;-77
2020/12/25 06:12:00;;;;;;;3.83;2.90;;;;;;;3.87;93.54;99422.36;1754138;81;25209;-78
2020/12/25 06:14:27;;;;;;;3.60;3.30;;;;;;;3.87;93.55;99435.81;1754357;81;25291;-77
2020/12/25 06:17:01;;;;;;;4.07;2.83;;;;;;;3.87;93.48;99429.31;1756685;81;25623;-78
2020/12/25 06:20:04;;;;;;;3.57;3.27;;;;;;;3.88;93.58;99434.91;1757501;81;25151;-77
2020/12/25 06:22:38;;;;;;;4.13;3.63;;;;;;;3.89;93.60;99436.13;1757495;81;25235;-78
2020/12/25 06:25:12;;;;;;;4.57;3.57;;;;;;;3.89;93.47;99433.99;1757496;81;25326;-77
2020/12/25 06:27:59;;;;;;;3.60;3.30;;;;;;;3.91;93.48;99442.55;1757059;81;25219;-77
2020/12/25 06:30:29;;;;;;;4.27;3.40;;;;;;;3.95;93.40;99444.05;1742899;81;25758;-78
2020/12/25 06:32:57;;;;;;;3.80;3.40;;;;;;;3.94;93.23;99446.30;1756937;81;25482;-77
2020/12/25 06:35:34;;;;;;;4.10;3.70;;;;;;;3.96;93.19;99460.06;1756895;81;25212;-77
2020/12/25 06:38:18;;;;;;;4.17;3.73;;;;;;;3.95;93.15;99464.88;1756731;81;25164;-77
2020/12/25 06:40:44;;;;;;;4.53;4.10;;;;;;;3.92;93.09;99467.63;1756929;81;25802;-77
2020/12/25 06:43:15;;;;;;;4.87;3.73;;;;;;;3.90;93.20;99467.74;1756879;81;25205;-77
2020/12/25 06:45:43;;;;;;;4.43;4.03;;;;;;;3.91;93.21;99465.97;1756993;81;25278;-77
2020/12/25 06:48:19;;;;;;;4.93;4.50;;;;;;;3.87;93.25;99471.80;1707080;81;25738;-77
2020/12/25 06:51:00;;;;;;;5.47;4.97;;;;;;;3.86;93.31;99477.08;1756977;81;25358;-77
2020/12/25 06:53:42;;;;;;;5.53;5.03;;;;;;;3.87;93.45;99482.64;1756974;81;25255;-77
2020/12/25 06:56:18;;;;;;;5.90;5.30;;;;;;;3.86;93.43;99483.59;1756899;81;25259;-76
2020/12/25 06:58:54;;;;;;;5.60;4.60;;;;;;;3.88;93.47;99489.07;1731975;81;25797;-77
2020/12/25 07:01:40;;;;;;;5.63;5.13;;;;;;;3.88;93.42;99494.28;1756970;81;25337;-78
2020/12/25 07:04:28;;;;;;;6.83;5.43;;;;;;;3.92;93.47;99499.33;1756858;81;25737;-78
2020/12/25 07:06:59;;;;;;;7.63;6.03;;;;;;;3.91;93.38;99505.00;1735569;81;25347;-78
2020/12/25 07:09:46;;;;;;;8.43;6.17;;;;;;;3.94;93.30;99510.05;1757008;81;25146;-78
2020/12/25 07:12:22;;;;;;;7.60;6.33;;;;;;;3.94;93.32;99512.66;1756942;81;25077;-78
2020/12/25 07:14:49;;;;;;;6.80;5.50;;;;;;;3.97;93.34;99517.70;1756996;81;25279;-77
2020/12/25 07:17:18;;;;;;;7.00;5.50;;;;;;;3.95;93.20;99531.70;1754480;81;25919;-78
2020/12/25 07:19:45;;;;;;;5.70;5.17;;;;;;;3.93;93.14;99528.34;1753641;81;25284;-79
2020/12/25 07:22:12;;;;;;;6.60;5.90;;;;;;;3.91;93.14;99525.81;1753604;81;25221;-78
2020/12/25 07:24:42;;;;;;;6.40;5.60;;;;;;;3.91;93.09;99524.52;1753764;81;25719;-78
2020/12/25 07:27:09;;;;;;;6.40;5.80;;;;;;;3.93;93.05;99527.87;1753618;81;25272;-78
2020/12/25 07:29:36;;;;;;;6.07;5.17;;;;;;;3.90;92.98;99529.33;1753712;81;25564;-79
2020/12/25 07:32:03;;;;;;;5.80;5.20;;;;;;;3.88;93.00;99537.68;1753615;81;25793;-78
2020/12/25 07:34:30;;;;;;;6.63;5.97;;;;;;;3.87;93.02;99546.39;1753563;81;25085;-78
2020/12/25 07:36:57;;;;;;;7.77;6.07;;;;;;;3.84;93.02;99543.50;1753746;81;25323;-78
2020/12/25 07:39:25;;;;;;;6.97;6.27;;;;;;;3.84;93.02;99547.41;1753716;81;25387;-78
2020/12/25 07:41:52;;;;;;;8.20;7.10;;;;;;;3.81;93.07;99550.16;1753794;81;25326;-77
2020/12/25 07:44:19;;;;;;;8.00;6.47;;;;;;;3.85;92.98;99559.95;1753628;81;25347;-77
2020/12/25 07:46:48;;;;;;;8.03;6.43;;;;;;;3.86;93.00;99562.94;1753614;81;25276;-79
2020/12/25 07:49:14;;;;;;;7.73;5.80;;;;;;;3.89;92.79;99570.59;1753776;81;25334;-78
2020/12/25 07:51:41;;;;;;;6.43;5.83;;;;;;;3.86;92.46;99561.64;1753610;81;25205;-79
2020/12/25 07:54:08;;;;;;;8.07;6.13;;;;;;;3.86;92.12;99572.05;1753863;81;25326;-78
2020/12/25 07:56:35;;;;;;;7.10;5.90;;;;;;;3.83;92.10;99568.30;1753626;81;25708;-79
2020/12/25 07:59:03;;;;;;;7.97;5.33;;;;;;;3.78;91.96;99563.79;1753697;81;25235;-79
2020/12/25 08:01:32;;;;;;;6.60;5.90;;;;;;;3.81;91.96;99559.27;1753782;81;25177;-79
2020/12/25 08:04:01;;;;;;;9.53;6.00;;;;;;;3.81;91.99;99563.64;1753829;81;25217;-77
2020/12/25 08:06:30;;;;;;;7.80;6.13;;;;;;;3.84;92.02;99568.69;1753405;81;25770;-78
2020/12/25 08:09:03;;;;;;;6.97;6.27;;;;;;;3.89;91.78;99569.30;1753660;81;25336;-78
2020/12/25 08:11:30;;;;;;;7.47;6.03;;;;;;;3.89;91.67;99579.70;1753631;81;25312;-79
2020/12/25 08:14:01;;;;;;;7.27;6.27;;;;;;;3.88;91.57;99574.94;1753740;81;25323;-78
2020/12/25 08:16:34;;;;;;;8.00;6.07;;;;;;;3.89;91.57;99581.84;1754305;81;25177;-78
2020/12/25 08:19:05;;;;;;;7.90;5.90;;;;;;;3.90;91.54;99585.27;1756976;81;25231;-78
2020/12/25 08:21:33;;;;;;;6.17;5.20;;;;;;;3.95;91.47;99588.48;1756889;81;25323;-78
2020/12/25 08:24:03;;;;;;;7.07;4.97;;;;;;;3.98;91.18;99590.93;1756954;81;25244;-78
2020/12/25 08:26:39;;;;;;;6.30;5.00;;;;;;;3.95;90.92;99598.89;1757076;81;25283;-78
2020/12/25 08:29:06;;;;;;;6.53;5.70;;;;;;;3.95;90.90;99600.19;1757166;81;25208;-78
2020/12/25 08:31:38;;;;;;;11.00;7.23;;;;;;;3.95;90.99;99598.06;1756868;81;25303;-78
2020/12/25 08:34:06;;;;;;;5.60;5.00;;;;;;;3.96;90.85;99597.98;1756416;81;25754;-79
2020/12/25 08:36:33;;;;;;;6.50;4.60;;;;;;;3.96;90.70;99608.86;1756835;81;25699;-79
2020/12/25 08:39:00;;;;;;;6.27;5.67;;;;;;;3.96;90.69;99610.99;1756916;81;25223;-78
2020/12/25 08:41:27;;;;;;;8.03;5.80;;;;;;;3.96;90.66;99624.47;1756774;81;25216;-76
2020/12/25 08:43:55;;;;;;;6.87;5.87;;;;;;;3.96;90.74;99623.17;1731196;81;25315;-78
2020/12/25 08:46:22;;;;;;;6.90;5.43;;;;;;;3.99;90.78;99631.66;1757045;81;25276;-77
2020/12/25 08:48:51;;;;;;;6.90;5.50;;;;;;;3.97;90.60;99632.64;1756835;81;25311;-79
2020/12/25 08:51:19;;;;;;;7.57;5.40;;;;;;;3.96;90.79;99635.72;1756744;81;25397;-78
2020/12/25 08:53:53;;;;;;;5.40;4.20;;;;;;;4.00;90.62;99637.23;1756851;81;25153;-77
2020/12/25 08:56:25;;;;;;;6.53;4.10;;;;;;;3.97;90.13;99646.95;1756909;81;25307;-78
2020/12/25 08:59:06;;;;;;;7.40;4.53;;;;;;;3.90;90.00;99647.72;1756757;81;25837;-77
2020/12/25 09:01:36;;;;;;;8.87;5.13;;;;;;;3.90;90.08;99655.53;1756720;81;25319;-78
2020/12/25 09:04:03;;;;;;;6.77;5.10;;;;;;;3.93;90.23;99654.08;1756919;81;25216;-78
2020/12/25 09:06:32;;;;;;;6.03;4.70;;;;;;;3.96;90.16;99668.25;1756862;81;25216;-77
2020/12/25 09:08:59;;;;;;;5.53;3.80;;;;;;;3.96;90.27;99657.84;1756979;81;25633;-78
2020/12/25 09:11:25;;;;;;;4.10;3.43;;;;;;;4.06;89.92;99663.43;1756702;81;25224;-77
2020/12/25 09:13:52;;;;;;;6.77;4.60;;;;;;;4.03;89.03;99661.80;1757045;81;25285;-78
2020/12/25 09:16:19;;;;;;;7.00;4.33;;;;;;;3.97;89.09;99672.55;1756771;81;25781;-78
2020/12/25 09:18:46;;;;;;;6.53;4.17;;;;;;;3.98;89.20;99674.67;1756845;81;25334;-78
2020/12/25 09:21:14;;;;;;;6.27;4.20;;;;;;;4.00;89.34;99680.17;1756916;81;25241;-78
2020/12/25 09:23:41;;;;;;;7.60;5.07;;;;;;;4.03;88.81;99677.89;1756869;81;25288;-78
2020/12/25 09:26:10;;;;;;;7.93;5.13;;;;;;;4.06;88.84;99685.55;1756906;81;25121;-78
2020/12/25 09:28:36;;;;;;;5.63;4.20;;;;;;;4.08;88.79;99685.84;1756877;81;25369;-76
2020/12/25 09:31:05;;;;;;;5.27;4.10;;;;;;;4.08;88.43;99691.52;1731200;81;25568;-77
2020/12/25 09:33:31;;;;;;;4.03;3.03;;;;;;;4.07;88.04;99696.33;1731469;81;25149;-78
2020/12/25 09:35:58;;;;;;;3.63;2.60;;;;;;;4.06;87.88;99703.30;1756831;81;25315;-78
2020/12/25 09:38:25;;;;;;;3.13;2.23;;;;;;;4.02;87.91;99699.18;1757003;81;25745;-78
2020/12/25 09:40:52;;;;;;;4.47;2.30;;;;;;;4.01;87.85;99698.78;1756910;81;25699;-78
2020/12/25 09:43:19;;;;;;;3.83;2.50;;;;;;;4.05;87.74;99702.08;1756734;81;25188;-78
2020/12/25 09:45:46;;;;;;;3.97;2.63;;;;;;;4.05;88.01;99703.37;1756926;81;25197;-78
2020/12/25 09:48:12;;;;;;;4.57;3.13;;;;;;;4.11;88.06;99696.58;1756651;81;25662;-78
2020/12/25 09:50:39;;;;;;;3.73;2.97;;;;;;;4.14;88.04;99691.66;1756801;81;25197;-78
2020/12/25 09:53:06;;;;;;;3.97;3.13;;;;;;;4.28;87.83;99687.91;1731009;81;25528;-78
2020/12/25 09:55:37;;;;;;;3.63;2.80;;;;;;;4.37;87.56;99695.72;1756834;81;25351;-77
2020/12/25 09:58:01;;;;;;;4.60;3.20;;;;;;;4.43;87.38;99694.11;1756481;81;25114;-77
2020/12/25 10:00:28;;;;;;;5.40;3.90;;;;;;;4.38;86.22;99700.84;1756816;81;25137;-78
2020/12/25 10:02:55;;;;;;;4.67;3.80;;;;;;;4.30;86.65;99699.09;1756782;81;25721;-77
2020/12/25 10:05:21;;;;;;;5.47;4.37;;;;;;;4.28;86.32;99693.95;1756928;81;25192;-78
2020/12/25 10:07:51;;;;;;;4.83;3.60;;;;;;;4.24;86.41;99696.78;1756867;81;25126;-78
2020/12/25 10:10:16;;;;;;;8.27;5.97;;;;;;;4.23;86.43;99697.72;1756793;81;25176;-78
2020/12/25 10:12:43;;;;;;;7.33;5.30;;;;;;;4.18;85.94;99691.91;1756831;81;25305;-77
2020/12/25 10:15:10;;;;;;;5.00;3.23;;;;;;;4.14;86.25;99691.22;1757020;81;25180;-78
2020/12/25 10:17:36;;;;;;;4.53;3.60;;;;;;;4.12;86.33;99687.83;1755301;81;25638;-78
2020/12/25 10:20:03;;;;;;;3.47;3.03;;;;;;;4.15;86.57;99689.45;1753865;81;25615;-78
2020/12/25 10:22:30;;;;;;;3.90;2.90;;;;;;;4.17;85.46;99695.41;1753743;81;25299;-79
2020/12/25 10:24:56;;;;;;;4.50;2.90;;;;;;;4.15;85.44;99689.45;1753677;81;25722;-79
2020/12/25 10:27:24;;;;;;;4.73;3.20;;;;;;;4.14;84.92;99686.45;1753891;81;25322;-78
2020/12/25 10:29:52;;;;;;;3.47;2.83;;;;;;;4.17;85.19;99687.13;1753805;81;25252;-78
2020/12/25 10:32:19;;;;;;;5.10;3.70;;;;;;;4.23;85.17;99687.31;1753648;81;25137;-79
2020/12/25 10:34:46;;;;;;;3.83;2.60;;;;;;;4.27;84.94;99687.08;1753789;81;25224;-77
2020/12/25 10:37:13;;;;;;;3.43;2.80;;;;;;;4.32;83.56;99691.20;1753545;81;25611;-78
2020/12/25 10:39:39;;;;;;;3.80;3.00;;;;;;;4.22;83.35;99698.19;1753632;81;25153;-78
2020/12/25 10:42:09;;;;;;;4.00;2.60;;;;;;;4.19;83.69;99702.25;1753865;81;25216;-78
2020/12/25 10:44:36;;;;;;;3.10;2.30;;;;;;;4.17;83.67;99705.83;1753838;81;25612;-78
2020/12/25 10:47:04;;;;;;;2.70;2.30;;;;;;;4.07;83.70;99706.30;1753694;81;25109;-78
2020/12/25 10:49:30;;;;;;;4.60;2.90;;;;;;;4.03;83.74;99703.45;1753675;81;25252;-78
2020/12/25 10:51:57;;;;;;;4.20;3.40;;;;;;;4.04;84.29;99697.34;1753609;81;25607;-78
2020/12/25 10:54:24;;;;;;;4.97;3.90;;;;;;;4.12;84.53;99710.42;1753734;81;25149;-78
2020/12/25 10:56:50;;;;;;;9.53;4.50;;;;;;;4.15;84.51;99707.67;1753691;81;25689;-78
2020/12/25 10:59:17;;;;;;;7.37;4.90;;;;;;;4.18;84.57;99711.43;1753664;81;25378;-78
2020/12/25 11:01:46;;;;;;;7.17;4.03;;;;;;;4.20;84.52;99713.02;1753581;81;25723;-78
2020/12/25 11:04:12;;;;;;;7.77;5.23;;;;;;;4.32;84.08;99718.08;1753715;81;25368;-78
2020/12/25 11:06:39;;;;;;;7.60;5.07;;;;;;;4.20;84.32;99717.39;1753683;81;25588;-79
2020/12/25 11:09:09;;;;;;;6.87;3.80;;;;;;;4.22;84.25;99726.83;1753758;81;25082;-78
2020/12/25 11:11:39;;;;;;;6.03;2.80;;;;;;;4.24;83.38;99725.42;1753702;81;25239;-78
2020/12/25 11:14:08;;;;;;;4.00;3.00;;;;;;;4.22;83.21;99724.66;1753813;81;25149;-77
2020/12/25 11:16:36;;;;;;;4.20;2.87;;;;;;;4.21;82.29;99723.83;1753959;81;25663;-77
2020/12/25 11:19:06;;;;;;;5.03;3.60;;;;;;;4.07;82.46;99725.82;1756784;81;25240;-79
2020/12/25 11:21:33;;;;;;;5.20;3.90;;;;;;;3.99;83.07;99730.99;1757166;81;25579;-77
2020/12/25 11:24:04;;;;;;;5.97;4.10;;;;;;;3.97;83.56;99724.59;1756937;81;25165;-76
2020/12/25 11:26:34;;;;;;;6.13;4.70;;;;;;;4.03;83.72;99724.27;1756981;81;25300;-77
2020/12/25 11:29:04;;;;;;;6.97;4.60;;;;;;;4.05;83.91;99731.54;1757056;81;25330;-78
2020/12/25 11:31:32;;;;;;;6.23;4.40;;;;;;;4.12;83.59;99729.48;1757109;81;25775;-77
2020/12/25 11:33:58;;;;;;;5.17;3.70;;;;;;;4.13;83.65;99727.73;1756971;81;25219;-78
2020/12/25 11:36:32;;;;;;;5.43;3.83;;;;;;;4.14;83.25;99725.06;1756968;81;25406;-78
2020/12/25 11:38:59;;;;;;;5.93;4.17;;;;;;;4.09;82.89;99733.09;1756894;81;25146;-78
2020/12/25 11:41:26;;;;;;;5.67;4.67;;;;;;;4.06;83.16;99737.61;1756894;81;25125;-78
2020/12/25 11:43:53;;;;;;;6.97;4.70;;;;;;;4.05;83.54;99732.84;1756932;81;25626;-78
2020/12/25 11:46:20;;;;;;;6.13;4.37;;;;;;;4.06;83.26;99742.81;1756969;81;25334;-78